Hovedside
METAR-TAF:

METAR-TAF

Lufthavner :

Oshima, Japan

breddegrad: 34-47N, lengdegrad: 139-22E, høyde over havet: 38 m

Gjeldene værobservasjon

Denne rapporten ble laget for 48 minutter siden, klokken 04:00 UTC
Vind 11 kt fra Nord-nordøst
Temperatur 21°C
Luftfuktighet 56%
Trykk 1021 hPa
Sikt 10 km eller mer
Få skyer i en høyde av 3000 ft

METAR: RJTO 220400Z 03011KT 9999 FEW030 21/12 Q1021

Tid: 13:48 (04:48 UTC)


TAF: fraværende

Værobservasjoner og værvarsel for over 4000 flyplasser (METAR- og TAF-rapporter).

Tilgjengelige stasjoner er representert av de røde og gule prikkene på kartet.

Hold musepekeren over prikken for å se navnet på stasjonen.

Klikk så for å se værobservasjoner og -varsler.

For å forandre kartet kan du klikke på den grønne knappen med svart kryss for å zoome inn, på den grønne knappen med strek for å zoome ut, eller på de grønne pilene for å se tilstøtende kart.


METAR-TAF: